Kinsey, MT (59338)

3:01 PM MDT on March 25, 2017 (GMT -0600)
MD8631 | | Change Station

Elev 2282 ft 46.73 °N, 105.44 °W | Updated 45 minutes ago

Overcast
Overcast
59.0 °F
Feels Like 59.0 °F
N
2.0
Wind Variable Wind from South
Gusts 10.0 mph

Today
High -- | Low -- °F
--% Chance of Precip.
Yesterday
High -- | Low -- °F
Precip. -- in
Pressure 29.91 in
Visibility 10.0 miles
Clouds Overcast 7000 ft
Dew Point 30 °F
Humidity 33%
Rainfall 0.02 in
Snow Depth Not available.
6:55 AM 7:22 PM
Waning Crescent, 6% visible
METAR KMLS 252053Z AUTO VRB03KT 10SM OVC070 14/M03 A2991 RMK AO2 SLP129 T01391033 58013
Pressure 29.91 in
Visibility 10.0 miles
Clouds Overcast 7000 ft
Dew Point 30 °F
Humidity 33%
Rainfall 0.02 in
Snow Depth Not available.
6:55 AM 7:22 PM
Waning Crescent, 6% visible
METAR KMLS 252053Z AUTO VRB03KT 10SM OVC070 14/M03 A2991 RMK AO2 SLP129 T01391033 58013

Get Severe Weather Alerts

Thanks for signing up!

Be on the lookout for a verification email in your inbox.

You'll start receiving the daily forecast at 8 AM.

×

10-Day Weather Forecast

Almanac

Astronomy

Mar. 25, 2017 Rise Set
Actual Time
Civil Twilight
Nautical Twilight
Astronomical Twilight
Moon
Length of Visible Light
Length of Day
Tomorrow will be .
, % of the Moon is Illuminated

Today's Extremes

State Highs State Lows

Community

WunderPhotos

Upload Photos

1,962,540 photos uploaded!

WunderBlog® & News

Nearby

Air Quality

  Air Quality AQ Index Pollutant
Not available.

Snow Depth

Station Depth Elevation

Earthquake Activity

City Distance Mag. Time & Date
Minimum magnitude displayed is 2.5.

Earthquake Activity

City Distance Mag. Time & Date
Minimum magnitude displayed is 2.5.

Coastal Water Temperatures

Place Temperature

Stations

Nearby Weather Stations

Station Location Temp. Windchill Dew Point Humidity Wind Precip. Elev Updated Type
                   

Watches & Warnings

There are currently no watches in effect.